Time;durP1;ratioP1;P1;durP2;ratioP2;P2;SDS_P1;SDS_P2;PMS_P1;PMS_P2;Temp;Humidity;BMP_temperature;BMP_pressure;BME280_temperature;BME280_humidity;BME280_pressure;Samples;Min_cycle;Max_cycle;Signal;HPM_P1;HPM_P2
2022/10/11 00:00:48;;;;;;;;;;;;;;;14.04;57.05;100507.94;4975157;28;19970;-64
2022/10/11 00:03:14;;;;;;;;;;;;;;;14.05;56.94;100514.94;4975534;28;19922;-63
2022/10/11 00:05:39;;;;;;;;;;;;;;;13.99;57.07;100512.47;4973261;28;20366;-62
2022/10/11 00:08:05;;;;;;;;;;;;;;;13.96;57.25;100511.72;4964623;28;19922;-63
2022/10/11 00:10:31;;;;;;;;;;;;;;;13.91;57.46;100525.09;4973190;28;19922;-61
2022/10/11 00:12:56;;;;;;;;;;;;;;;13.88;57.85;100519.91;4972850;28;19922;-63
2022/10/11 00:15:22;;;;;;;;;;;;;;;13.86;57.86;100527.03;4975204;28;19929;-63
2022/10/11 00:17:47;;;;;;;;;;;;;;;13.75;58.10;100519.44;4974950;28;20397;-63
2022/10/11 00:20:13;;;;;;;;;;;;;;;13.79;58.27;100525.50;4970798;28;19929;-63
2022/10/11 00:22:39;;;;;;;;;;;;;;;13.86;58.21;100529.66;4973688;28;19933;-62
2022/10/11 00:25:06;;;;;;;;;;;;;;;13.87;57.86;100515.53;4974695;28;19928;-63
2022/10/11 00:27:32;;;;;;;;;;;;;;;13.86;57.97;100513.81;4973587;28;20370;-64
2022/10/11 00:29:57;;;;;;;;;;;;;;;13.83;57.98;100513.91;4972907;28;19999;-62
2022/10/11 00:32:23;;;;;;;;;;;;;;;13.78;57.94;100516.72;4974093;28;19925;-63
2022/10/11 00:34:48;;;;;;;;;;;;;;;13.77;58.46;100514.13;4974371;28;20346;-63
2022/10/11 00:37:13;;;;;;;;;;;;;;;13.72;58.54;100516.03;4973190;28;19926;-62
2022/10/11 00:39:39;;;;;;;;;;;;;;;13.75;58.38;100521.22;4975075;28;20425;-62
2022/10/11 00:42:10;;;;;;;;;;;;;;;13.68;58.49;100509.13;4973899;28;20239;-62
2022/10/11 00:44:35;;;;;;;;;;;;;;;13.68;58.49;100511.78;4974875;28;19922;-62
2022/10/11 00:47:02;;;;;;;;;;;;;;;13.69;58.49;100516.16;4974069;28;20302;-59
2022/10/11 00:49:47;;;;;;;;;;;;;;;13.67;58.72;100507.41;4974262;28;19918;-63
2022/10/11 00:52:12;;;;;;;;;;;;;;;13.62;59.13;100518.13;4971875;28;19929;-63
2022/10/11 00:54:40;;;;;;;;;;;;;;;13.70;59.03;100513.47;4973442;28;19972;-64
2022/10/11 00:57:08;;;;;;;;;;;;;;;13.67;59.05;100507.41;4972793;28;19918;-62
2022/10/11 00:59:39;;;;;;;;;;;;;;;13.77;58.85;100501.78;4974392;28;19918;-63
2022/10/11 01:02:05;;;;;;;;;;;;;;;13.69;59.05;100509.09;4973512;28;19922;-62
2022/10/11 01:04:31;;;;;;;;;;;;;;;13.72;59.06;100513.41;4973944;28;19952;-64
2022/10/11 01:06:56;;;;;;;;;;;;;;;13.76;59.21;100521.19;5005964;28;19922;-63
2022/10/11 01:09:22;;;;;;;;;;;;;;;13.79;59.63;100520.22;4974496;28;19929;-64
2022/10/11 01:11:48;;;;;;;;;;;;;;;13.86;59.35;100519.09;4972173;28;19977;-63
2022/10/11 01:14:20;;;;;;;;;;;;;;;13.92;59.46;100524.16;4973693;28;19922;-63
2022/10/11 01:16:56;;;;;;;;;;;;;;;13.95;59.33;100520.56;4970411;28;19929;-63
2022/10/11 01:19:40;;;;;;;;;;;;;;;13.97;59.37;100516.13;4965943;28;19967;-63
2022/10/11 01:22:08;;;;;;;;;;;;;;;14.19;58.67;100513.59;4973384;28;20013;-62
2022/10/11 01:25:01;;;;;;;;;;;;;;;14.26;58.79;100528.31;4974304;28;19922;-63
2022/10/11 01:27:29;;;;;;;;;;;;;;;14.39;58.64;100532.25;4973447;28;19918;-62
2022/10/11 01:30:00;;;;;;;;;;;;;;;14.50;58.17;100534.56;4976501;28;19972;-62
2022/10/11 01:33:04;;;;;;;;;;;;;;;14.55;58.59;100537.91;4972085;28;20060;-63
2022/10/11 01:35:38;;;;;;;;;;;;;;;14.66;58.27;100543.69;4947206;29;20330;-63
2022/10/11 01:38:16;;;;;;;;;;;;;;;14.72;57.91;100537.28;4935414;29;19919;-63
2022/10/11 01:40:46;;;;;;;;;;;;;;;14.81;57.49;100534.34;4964570;28;19918;-61
2022/10/11 01:43:12;;;;;;;;;;;;;;;14.77;57.53;100541.53;4988011;28;20012;-64
2022/10/11 01:45:37;;;;;;;;;;;;;;;14.77;57.67;100544.16;4973179;28;20016;-64
2022/10/11 01:48:10;;;;;;;;;;;;;;;14.73;58.72;100536.41;4973681;28;20016;-63
2022/10/11 01:50:38;;;;;;;;;;;;;;;14.81;58.40;100539.63;4973466;28;19925;-63
2022/10/11 01:53:15;;;;;;;;;;;;;;;14.72;58.93;100545.22;4973591;28;19972;-63
2022/10/11 01:55:49;;;;;;;;;;;;;;;14.72;59.55;100539.94;4973816;28;19918;-60
2022/10/11 01:58:23;;;;;;;;;;;;;;;14.86;58.75;100535.03;4971849;28;19922;-63
2022/10/11 02:00:55;;;;;;;;;;;;;;;14.90;58.62;100539.28;4973178;28;19946;-63
2022/10/11 02:03:28;;;;;;;;;;;;;;;14.90;59.04;100544.56;4973990;28;19965;-64
2022/10/11 02:05:59;;;;;;;;;;;;;;;14.88;58.81;100543.78;4971790;28;19980;-63
2022/10/11 02:08:31;;;;;;;;;;;;;;;14.91;58.88;100534.84;4974937;28;19980;-63
2022/10/11 02:11:03;;;;;;;;;;;;;;;14.92;58.97;100541.84;4977003;28;19925;-62
2022/10/11 02:13:35;;;;;;;;;;;;;;;15.03;58.75;100537.03;4977261;28;19925;-63
2022/10/11 02:16:01;;;;;;;;;;;;;;;14.87;59.26;100535.88;4976684;28;19961;-63
2022/10/11 02:18:31;;;;;;;;;;;;;;;14.96;59.16;100535.53;4975159;28;19968;-63
2022/10/11 02:20:57;;;;;;;;;;;;;;;14.99;58.94;100528.34;4976467;28;19918;-63
2022/10/11 02:23:26;;;;;;;;;;;;;;;14.94;58.99;100532.97;4975601;28;19948;-62
2022/10/11 02:25:53;;;;;;;;;;;;;;;14.75;59.97;100548.63;4976280;28;19979;-64
2022/10/11 02:28:24;;;;;;;;;;;;;;;14.62;60.21;100557.06;4970853;28;19965;-63
2022/10/11 02:30:51;;;;;;;;;;;;;;;14.65;60.43;100559.63;4976311;28;19918;-63
2022/10/11 02:33:19;;;;;;;;;;;;;;;14.69;60.04;100562.09;4976308;28;19918;-63
2022/10/11 02:35:46;;;;;;;;;;;;;;;14.69;60.44;100566.53;4976805;28;19926;-62
2022/10/11 02:38:17;;;;;;;;;;;;;;;14.73;60.26;100573.44;4976726;28;19969;-63
2022/10/11 02:40:45;;;;;;;;;;;;;;;14.78;60.21;100577.63;4977330;28;19961;-65
2022/10/11 02:43:16;;;;;;;;;;;;;;;14.80;60.33;100580.19;4974832;28;20022;-65
2022/10/11 02:46:07;;;;;;;;;;;;;;;14.96;59.71;100567.28;4976273;28;19968;-65
2022/10/11 02:48:34;;;;;;;;;;;;;;;14.81;60.47;100581.94;4965525;28;20271;-63
2022/10/11 02:51:00;;;;;;;;;;;;;;;14.74;60.95;100583.09;4975795;28;19916;-63
2022/10/11 02:53:26;;;;;;;;;;;;;;;14.59;61.42;100580.97;4976293;28;19918;-64
2022/10/11 02:55:52;;;;;;;;;;;;;;;14.47;61.79;100576.94;4977345;28;19965;-62
2022/10/11 02:58:17;;;;;;;;;;;;;;;15.42;59.78;100578.81;4975932;28;19922;-63
2022/10/11 03:00:43;;;;;;;;;;;;;;;14.27;61.93;100574.97;4977119;28;19920;-63
2022/10/11 03:03:08;;;;;;;;;;;;;;;14.86;61.95;100582.63;4977031;28;19965;-62
2022/10/11 03:05:39;;;;;;;;;;;;;;;14.25;62.79;100582.97;4977000;28;19941;-64
2022/10/11 03:08:05;;;;;;;;;;;;;;;14.15;63.25;100580.69;4976025;28;20381;-63
2022/10/11 03:10:32;;;;;;;;;;;;;;;14.00;63.88;100593.50;4976572;28;20428;-63
2022/10/11 03:12:57;;;;;;;;;;;;;;;13.66;65.67;100596.31;4976718;28;20297;-63
2022/10/11 03:15:23;;;;;;;;;;;;;;;13.61;65.96;100595.59;4975370;28;19930;-62
2022/10/11 03:17:48;;;;;;;;;;;;;;;13.60;65.92;100599.13;4976836;28;20004;-62
2022/10/11 03:20:13;;;;;;;;;;;;;;;13.53;66.24;100606.41;4976120;28;20309;-63
2022/10/11 03:22:39;;;;;;;;;;;;;;;13.49;66.92;100606.53;4975755;28;19944;-63
2022/10/11 03:25:05;;;;;;;;;;;;;;;13.30;67.54;100612.34;4976896;28;20289;-64
2022/10/11 03:27:31;;;;;;;;;;;;;;;13.47;67.02;100616.25;4976099;28;19928;-64
2022/10/11 03:29:56;;;;;;;;;;;;;;;13.48;66.87;100621.47;4974048;28;19981;-63
2022/10/11 03:32:22;;;;;;;;;;;;;;;13.60;65.99;100617.63;4975748;28;20370;-64
2022/10/11 03:34:47;;;;;;;;;;;;;;;13.39;67.49;100618.28;4974997;28;19975;-64
2022/10/11 03:37:12;;;;;;;;;;;;;;;13.30;67.90;100617.63;4976330;28;19961;-63
2022/10/11 03:39:37;;;;;;;;;;;;;;;13.29;68.42;100620.31;4976499;28;19918;-64
2022/10/11 03:42:03;;;;;;;;;;;;;;;13.43;67.27;100623.41;4974005;28;20304;-63
2022/10/11 03:44:28;;;;;;;;;;;;;;;13.41;67.29;100630.53;4975819;28;20274;-63
2022/10/11 03:46:53;;;;;;;;;;;;;;;13.51;66.25;100634.59;4973074;28;19969;-63
2022/10/11 03:49:19;;;;;;;;;;;;;;;13.40;67.31;100627.91;4974106;28;19922;-63
2022/10/11 03:51:44;;;;;;;;;;;;;;;13.35;67.35;100638.59;4974467;28;19926;-62
2022/10/11 03:54:09;;;;;;;;;;;;;;;13.40;67.05;100643.75;4975135;28;20289;-63
2022/10/11 03:56:35;;;;;;;;;;;;;;;13.40;66.87;100643.75;4973916;28;19968;-63
2022/10/11 03:59:01;;;;;;;;;;;;;;;13.38;66.76;100641.16;4973716;28;19929;-63
2022/10/11 04:01:26;;;;;;;;;;;;;;;13.39;66.22;100645.53;4973805;28;20389;-62
2022/10/11 04:03:53;;;;;;;;;;;;;;;13.31;66.58;100651.00;4973315;28;19922;-64
2022/10/11 04:06:19;;;;;;;;;;;;;;;13.20;67.29;100653.06;4974342;28;19918;-64
2022/10/11 04:08:44;;;;;;;;;;;;;;;13.19;67.15;100656.59;4974353;28;19933;-64
2022/10/11 04:11:09;;;;;;;;;;;;;;;13.22;66.41;100658.31;4974516;28;19957;-63
2022/10/11 04:13:35;;;;;;;;;;;;;;;13.16;67.49;100661.09;4972320;28;19922;-63
2022/10/11 04:16:00;;;;;;;;;;;;;;;13.26;66.95;100670.53;4975137;28;20346;-63
2022/10/11 04:18:25;;;;;;;;;;;;;;;13.13;68.05;100683.19;4972383;28;20018;-63
2022/10/11 04:20:51;;;;;;;;;;;;;;;13.20;67.86;100675.94;5006837;28;19944;-63
2022/10/11 04:23:16;;;;;;;;;;;;;;;13.30;66.93;100677.47;4972196;28;20384;-63
2022/10/11 04:25:41;;;;;;;;;;;;;;;13.35;66.87;100675.56;4974454;28;20396;-64
2022/10/11 04:28:07;;;;;;;;;;;;;;;13.50;66.20;100690.94;4974528;28;19969;-63
2022/10/11 04:30:33;;;;;;;;;;;;;;;13.47;66.74;100688.41;4964903;28;19984;-64
2022/10/11 04:32:58;;;;;;;;;;;;;;;13.57;66.02;100696.94;4982592;28;20378;-64
2022/10/11 04:35:23;;;;;;;;;;;;;;;13.47;66.56;100698.09;4972340;28;20405;-62
2022/10/11 04:37:49;;;;;;;;;;;;;;;13.45;66.36;100700.78;4972499;28;19928;-64
2022/10/11 04:40:14;;;;;;;;;;;;;;;13.48;66.39;100698.03;4974222;28;19936;-64
2022/10/11 04:42:39;;;;;;;;;;;;;;;13.58;66.09;100700.44;4971017;28;19922;-64
2022/10/11 04:45:05;;;;;;;;;;;;;;;13.49;67.01;100712.13;4973695;28;19926;-64
2022/10/11 04:47:30;;;;;;;;;;;;;;;13.59;66.30;100712.72;4974110;28;20048;-63
2022/10/11 04:49:56;;;;;;;;;;;;;;;13.47;66.68;100709.50;4975485;28;19922;-61
2022/10/11 04:52:21;;;;;;;;;;;;;;;13.45;66.39;100721.91;4974753;28;19914;-65
2022/10/11 04:54:47;;;;;;;;;;;;;;;13.43;66.19;100715.78;4974784;28;19929;-64
2022/10/11 04:57:12;;;;;;;;;;;;;;;13.16;67.37;100719.16;4975327;28;19918;-63
2022/10/11 04:59:37;;;;;;;;;;;;;;;13.16;67.45;100716.50;4974296;28;19933;-62
2022/10/11 05:02:02;;;;;;;;;;;;;;;13.13;67.42;100722.75;4974809;28;19918;-64
2022/10/11 05:04:28;;;;;;;;;;;;;;;13.04;67.92;100728.25;4973402;28;19922;-64
2022/10/11 05:06:53;;;;;;;;;;;;;;;13.03;67.31;100730.03;4975629;28;19922;-63
2022/10/11 05:09:18;;;;;;;;;;;;;;;12.97;67.56;100743.38;4973791;28;20374;-63
2022/10/11 05:11:44;;;;;;;;;;;;;;;12.79;67.96;100743.84;4975051;28;20067;-63
2022/10/11 05:14:09;;;;;;;;;;;;;;;13.06;67.01;100743.16;4974802;28;19918;-63
2022/10/11 05:16:34;;;;;;;;;;;;;;;13.04;66.21;100763.41;4975088;28;20025;-63
2022/10/11 05:19:00;;;;;;;;;;;;;;;13.17;65.83;100757.84;4975193;28;19921;-63
2022/10/11 05:21:26;;;;;;;;;;;;;;;13.14;65.90;100765.81;4973250;28;20325;-63
2022/10/11 05:23:54;;;;;;;;;;;;;;;13.30;64.95;100759.28;4974964;28;19914;-63
2022/10/11 05:26:19;;;;;;;;;;;;;;;13.20;65.23;100770.94;4972879;28;19918;-63
2022/10/11 05:28:45;;;;;;;;;;;;;;;13.18;65.28;100778.03;4973514;28;20374;-63
2022/10/11 05:31:11;;;;;;;;;;;;;;;13.10;65.18;100782.63;4973171;28;19922;-62
2022/10/11 05:33:36;;;;;;;;;;;;;;;13.29;64.99;100778.66;4973945;28;19922;-64
2022/10/11 05:36:01;;;;;;;;;;;;;;;13.25;64.73;100790.19;4971534;28;19932;-65
2022/10/11 05:38:27;;;;;;;;;;;;;;;13.06;64.86;100792.41;4973325;28;19925;-63
2022/10/11 05:40:52;;;;;;;;;;;;;;;13.36;64.06;100789.91;4974686;28;19918;-64
2022/10/11 05:43:17;;;;;;;;;;;;;;;13.42;63.86;100802.94;4975356;28;20400;-63
2022/10/11 05:45:43;;;;;;;;;;;;;;;13.47;63.35;100804.53;4978780;28;19922;-63
2022/10/11 05:48:08;;;;;;;;;;;;;;;13.62;62.94;100807.69;4977442;28;20286;-63
2022/10/11 05:50:34;;;;;;;;;;;;;;;13.36;63.85;100816.28;4978689;28;19914;-65
2022/10/11 05:53:00;;;;;;;;;;;;;;;13.49;63.76;100821.22;4978619;28;19961;-63
2022/10/11 05:55:26;;;;;;;;;;;;;;;13.52;64.01;100821.16;4977190;28;20314;-64
2022/10/11 05:57:52;;;;;;;;;;;;;;;13.71;63.28;100824.13;4978385;28;19976;-64
2022/10/11 06:00:17;;;;;;;;;;;;;;;13.82;62.93;100818.56;4977042;28;20345;-64
2022/10/11 06:02:43;;;;;;;;;;;;;;;13.90;62.91;100826.28;4978662;28;20365;-64
2022/10/11 06:05:08;;;;;;;;;;;;;;;13.86;63.30;100832.56;4978435;28;19914;-62
2022/10/11 06:07:34;;;;;;;;;;;;;;;13.91;62.82;100841.19;4978755;28;19914;-64
2022/10/11 06:10:00;;;;;;;;;;;;;;;13.99;62.69;100845.34;4978311;28;19914;-65
2022/10/11 06:12:27;;;;;;;;;;;;;;;14.07;62.39;100844.28;4977668;28;19937;-65
2022/10/11 06:14:52;;;;;;;;;;;;;;;13.75;63.56;100851.31;4978814;28;20060;-63
2022/10/11 06:17:18;;;;;;;;;;;;;;;13.85;63.51;100847.53;4977440;28;19981;-63
2022/10/11 06:19:43;;;;;;;;;;;;;;;13.95;63.38;100853.41;4975838;28;19929;-63
2022/10/11 06:22:10;;;;;;;;;;;;;;;14.07;62.74;100855.72;4980683;28;20492;-62
2022/10/11 06:24:35;;;;;;;;;;;;;;;14.11;63.02;100864.41;4989451;28;19976;-63
2022/10/11 06:27:00;;;;;;;;;;;;;;;14.27;62.57;100863.06;4977332;28;19961;-63
2022/10/11 06:29:25;;;;;;;;;;;;;;;14.24;62.74;100876.34;4977551;28;19918;-64
2022/10/11 06:31:51;;;;;;;;;;;;;;;14.23;62.93;100875.50;4976447;28;19949;-63
2022/10/11 06:34:16;;;;;;;;;;;;;;;14.41;62.55;100882.03;4976667;28;19965;-63
2022/10/11 06:36:41;;;;;;;;;;;;;;;14.48;62.12;100880.06;4978330;28;19918;-63
2022/10/11 06:39:07;;;;;;;;;;;;;;;14.30;62.83;100898.22;4976662;28;19943;-64
2022/10/11 06:41:32;;;;;;;;;;;;;;;14.47;62.15;100894.19;4970626;28;19921;-64
2022/10/11 06:43:57;;;;;;;;;;;;;;;14.54;62.04;100904.59;4976214;28;19918;-63
2022/10/11 06:46:25;;;;;;;;;;;;;;;14.55;61.99;100905.44;4977446;28;20038;-64
2022/10/11 06:48:50;;;;;;;;;;;;;;;14.69;61.97;100912.97;4977504;28;19914;-62
2022/10/11 06:51:17;;;;;;;;;;;;;;;14.68;61.65;100913.88;4977445;28;19977;-64
2022/10/11 06:53:43;;;;;;;;;;;;;;;14.84;60.96;100915.16;4975776;28;20366;-63
2022/10/11 06:56:09;;;;;;;;;;;;;;;14.98;60.66;100918.22;4975065;28;19932;-59
2022/10/11 06:58:35;;;;;;;;;;;;;;;14.68;60.70;100921.81;4976837;28;19925;-63
2022/10/11 07:01:01;;;;;;;;;;;;;;;14.35;61.60;100935.06;4977559;28;19914;-63
2022/10/11 07:03:28;;;;;;;;;;;;;;;14.84;60.72;100924.84;4979761;28;19918;-64
2022/10/11 07:05:53;;;;;;;;;;;;;;;14.82;60.50;100930.22;4978024;28;19973;-62
2022/10/11 07:08:18;;;;;;;;;;;;;;;14.90;60.29;100932.63;4983491;28;19961;-63
2022/10/11 07:10:44;;;;;;;;;;;;;;;15.03;59.63;100926.88;4975938;28;20028;-62
2022/10/11 07:13:09;;;;;;;;;;;;;;;15.00;59.42;100942.00;4975272;28;20286;-63
2022/10/11 07:15:39;;;;;;;;;;;;;;;14.98;59.48;100938.53;4977139;28;20263;-61
2022/10/11 07:18:06;;;;;;;;;;;;;;;15.19;59.18;100943.16;4977582;28;19973;-63
2022/10/11 07:20:31;;;;;;;;;;;;;;;15.15;59.08;100946.81;4976039;28;19922;-63
2022/10/11 07:22:56;;;;;;;;;;;;;;;15.45;58.49;100952.91;4976851;28;19918;-63
2022/10/11 07:25:21;;;;;;;;;;;;;;;15.36;58.41;100957.63;4976780;28;20386;-63
2022/10/11 07:27:47;;;;;;;;;;;;;;;15.42;58.37;100954.78;4976848;28;19918;-63
2022/10/11 07:30:12;;;;;;;;;;;;;;;15.47;58.29;100961.66;4976891;28;19918;-63
2022/10/11 07:32:37;;;;;;;;;;;;;;;15.59;58.86;100956.88;4976860;28;19925;-64
2022/10/11 07:35:03;;;;;;;;;;;;;;;15.54;58.17;100975.56;4975958;28;19941;-65
2022/10/11 07:37:28;;;;;;;;;;;;;;;15.66;58.04;100974.34;4975543;28;19914;-64
2022/10/11 07:39:53;;;;;;;;;;;;;;;15.68;57.69;100972.53;4975422;28;19961;-62
2022/10/11 07:42:20;;;;;;;;;;;;;;;15.64;57.40;100984.97;4976044;28;19918;-64
2022/10/11 07:44:46;;;;;;;;;;;;;;;15.43;57.53;100981.22;4976531;28;19922;-64
2022/10/11 07:47:11;;;;;;;;;;;;;;;15.39;57.60;100992.81;4976129;28;19969;-64
2022/10/11 07:49:36;;;;;;;;;;;;;;;15.47;57.52;100995.22;4976574;28;19972;-64
2022/10/11 07:52:02;;;;;;;;;;;;;;;15.48;56.88;101008.44;4976249;28;19941;-65
2022/10/11 07:54:27;;;;;;;;;;;;;;;15.64;56.88;101005.25;4975881;28;19975;-63
2022/10/11 07:56:52;;;;;;;;;;;;;;;15.42;56.80;101011.25;5007389;28;19919;-62
2022/10/11 07:59:18;;;;;;;;;;;;;;;15.39;56.32;101032.53;4976350;28;19918;-64
2022/10/11 08:01:43;;;;;;;;;;;;;;;15.50;56.01;101021.63;4976211;28;19964;-63
2022/10/11 08:04:08;;;;;;;;;;;;;;;15.51;56.07;101008.31;4976110;28;19917;-63
2022/10/11 08:06:35;;;;;;;;;;;;;;;15.52;55.65;101015.38;4975724;28;19914;-63
2022/10/11 08:09:01;;;;;;;;;;;;;;;15.97;55.48;101028.03;4975333;28;19981;-62
2022/10/11 08:11:30;;;;;;;;;;;;;;;16.40;54.03;101015.97;4975961;28;20349;-63
2022/10/11 08:13:56;;;;;;;;;;;;;;;16.10;54.14;101019.66;4975696;28;19914;-64
2022/10/11 08:16:22;;;;;;;;;;;;;;;16.25;54.45;101027.09;4976072;28;19973;-64
2022/10/11 08:18:47;;;;;;;;;;;;;;;15.98;54.10;101035.06;4975735;28;20000;-63
2022/10/11 08:21:14;;;;;;;;;;;;;;;15.96;52.92;101023.66;4975643;28;20337;-63
2022/10/11 08:23:39;;;;;;;;;;;;;;;16.35;52.67;101027.63;4974311;28;19918;-64
2022/10/11 08:26:05;;;;;;;;;;;;;;;16.46;52.52;101033.44;4973440;28;19925;-64
2022/10/11 08:28:30;;;;;;;;;;;;;;;16.88;52.04;101022.22;4975836;28;19918;-63
2022/10/11 08:30:55;;;;;;;;;;;;;;;16.46;52.02;101041.38;4975563;28;19922;-63
2022/10/11 08:33:21;;;;;;;;;;;;;;;16.68;51.54;101037.03;4975605;28;20425;-63
2022/10/11 08:35:47;;;;;;;;;;;;;;;16.51;52.20;101034.97;4975729;28;20005;-64
2022/10/11 08:38:13;;;;;;;;;;;;;;;16.81;51.65;101044.59;4974758;28;20360;-64
2022/10/11 08:40:50;;;;;;;;;;;;;;;16.72;51.51;101049.28;4975384;28;20389;-64
2022/10/11 08:43:34;;;;;;;;;;;;;;;17.29;49.98;101047.16;4975549;28;19925;-64
2022/10/11 08:46:01;;;;;;;;;;;;;;;17.61;49.24;101050.34;4975496;28;19992;-64
2022/10/11 08:48:39;;;;;;;;;;;;;;;17.77;48.87;101062.13;4975053;28;19914;-64
2022/10/11 08:51:08;;;;;;;;;;;;;;;17.96;48.46;101059.56;4974952;28;19933;-62
2022/10/11 08:53:34;;;;;;;;;;;;;;;17.49;49.19;101064.97;4975783;28;19920;-64
2022/10/11 08:56:00;;;;;;;;;;;;;;;17.19;49.37;101051.94;4975343;28;19914;-59
2022/10/11 08:58:51;;;;;;;;;;;;;;;16.92;50.53;101069.81;4968820;28;19922;-63
2022/10/11 09:01:18;;;;;;;;;;;;;;;17.01;50.76;101065.09;4951388;28;19914;-63
2022/10/11 09:03:44;;;;;;;;;;;;;;;17.52;49.46;101061.34;4954866;29;19914;-64
2022/10/11 09:06:22;;;;;;;;;;;;;;;17.93;51.87;101063.22;4954921;29;19950;-63
2022/10/11 09:09:05;;;;;;;;;;;;;;;18.18;48.07;101068.38;4955947;29;19914;-64
2022/10/11 09:11:30;;;;;;;;;;;;;;;18.48;48.65;101064.47;4955656;28;19914;-63
2022/10/11 09:14:16;;;;;;;;;;;;;;;18.26;47.04;101065.38;4955295;29;20385;-64
2022/10/11 09:16:50;;;;;;;;;;;;;;;17.86;46.70;101071.50;4944841;29;19945;-62
2022/10/11 09:19:15;;;;;;;;;;;;;;;17.53;47.86;101074.56;4954988;29;19969;-63
2022/10/11 09:21:53;;;;;;;;;;;;;;;16.70;49.09;101074.13;4955646;29;19914;-63
2022/10/11 09:24:27;;;;;;;;;;;;;;;17.21;48.03;101071.38;4955219;29;19954;-63
2022/10/11 09:26:58;;;;;;;;;;;;;;;17.36;46.93;101066.41;4955642;29;20281;-62
2022/10/11 09:29:42;;;;;;;;;;;;;;;17.15;47.22;101084.84;4954700;29;19910;-65
2022/10/11 09:32:15;;;;;;;;;;;;;;;17.69;47.90;101080.13;4953976;29;20394;-61
2022/10/11 09:34:41;;;;;;;;;;;;;;;17.10;46.35;101108.06;4954157;28;20337;-64
2022/10/11 09:37:42;;;;;;;;;;;;;;;17.11;46.13;101087.69;4954482;29;19921;-66
2022/10/11 09:40:13;;;;;;;;;;;;;;;17.37;45.35;101095.53;4933053;29;20394;-65
2022/10/11 09:42:38;;;;;;;;;;;;;;;17.19;45.83;101104.19;4962592;28;20298;-66
2022/10/11 09:45:17;;;;;;;;;;;;;;;17.21;45.31;101097.91;4955539;29;20005;-65
2022/10/11 09:47:42;;;;;;;;;;;;;;;17.43;45.42;101097.09;4956043;28;20388;-67
2022/10/11 09:50:34;;;;;;;;;;;;;;;17.96;45.19;101089.69;4955641;28;19962;-64
2022/10/11 09:53:02;;;;;;;;;;;;;;;18.48;45.68;101097.25;4954122;28;19914;-66
2022/10/11 09:55:49;;;;;;;;;;;;;;;18.41;44.34;101104.63;4954176;28;19993;-64
2022/10/11 09:58:25;;;;;;;;;;;;;;;18.26;44.85;101107.06;4966228;28;19925;-65
2022/10/11 10:01:11;;;;;;;;;;;;;;;18.19;44.15;101117.09;4973844;28;20004;-65
2022/10/11 10:03:41;;;;;;;;;;;;;;;18.19;44.32;101117.09;4974479;28;20385;-66
2022/10/11 10:06:09;;;;;;;;;;;;;;;18.65;44.60;101115.16;4974473;28;19964;-65
2022/10/11 10:08:35;;;;;;;;;;;;;;;18.48;44.41;101115.88;4974594;28;19918;-64
2022/10/11 10:11:04;;;;;;;;;;;;;;;18.05;45.21;101128.31;4974361;28;20396;-64
2022/10/11 10:13:33;;;;;;;;;;;;;;;17.92;45.15;101122.63;4974000;28;20362;-64
2022/10/11 10:15:58;;;;;;;;;;;;;;;18.19;45.58;101125.06;4974486;28;19937;-65
2022/10/11 10:18:29;;;;;;;;;;;;;;;18.25;45.40;101130.16;4974550;28;20362;-65
2022/10/11 10:20:56;;;;;;;;;;;;;;;18.61;46.16;101135.72;4974413;28;20008;-64
2022/10/11 10:23:21;;;;;;;;;;;;;;;18.62;46.33;101142.75;4972984;28;20366;-63
2022/10/11 10:25:50;;;;;;;;;;;;;;;18.66;44.98;101146.16;4973639;28;19914;-64
2022/10/11 10:28:26;;;;;;;;;;;;;;;18.94;44.23;101138.72;4971600;28;20384;-65
2022/10/11 10:30:53;;;;;;;;;;;;;;;18.53;45.13;101153.81;4977450;28;19921;-64
2022/10/11 10:33:19;;;;;;;;;;;;;;;18.82;45.96;101154.38;4975644;28;19918;-65
2022/10/11 10:35:56;;;;;;;;;;;;;;;18.26;45.31;101169.13;4977854;28;19914;-65
2022/10/11 10:38:32;;;;;;;;;;;;;;;17.88;46.67;101162.72;4977965;28;19914;-64
2022/10/11 10:41:02;;;;;;;;;;;;;;;17.77;48.15;101184.38;4977589;28;19914;-65
2022/10/11 10:43:32;;;;;;;;;;;;;;;17.16;48.76;101199.94;4977818;28;20013;-64
2022/10/11 10:46:16;;;;;;;;;;;;;;;17.31;50.22;101209.97;4973992;28;19929;-64
2022/10/11 10:49:00;;;;;;;;;;;;;;;17.06;50.30;101199.38;4976581;28;19914;-64
2022/10/11 10:51:40;;;;;;;;;;;;;;;16.74;51.05;101197.84;4984058;28;19994;-65
2022/10/11 10:54:12;;;;;;;;;;;;;;;16.38;53.26;101203.44;4975991;28;19926;-65
2022/10/11 10:56:48;;;;;;;;;;;;;;;16.56;50.65;101195.81;4976778;28;20008;-66
2022/10/11 10:59:32;;;;;;;;;;;;;;;16.33;51.66;101199.19;4977576;28;19917;-65
2022/10/11 11:02:02;;;;;;;;;;;;;;;16.04;52.92;101192.16;4977443;28;19914;-63
2022/10/11 11:04:27;;;;;;;;;;;;;;;16.13;52.97;101195.41;4977256;28;20366;-64
2022/10/11 11:07:07;;;;;;;;;;;;;;;16.02;53.88;101197.53;4977248;28;19969;-64
2022/10/11 11:09:33;;;;;;;;;;;;;;;15.98;54.37;101188.78;4976189;28;19918;-65
2022/10/11 11:12:06;;;;;;;;;;;;;;;15.99;54.36;101185.22;4977145;28;19918;-65
2022/10/11 11:14:42;;;;;;;;;;;;;;;16.31;53.93;101191.28;4977160;28;19914;-65
2022/10/11 11:17:22;;;;;;;;;;;;;;;16.56;53.63;101206.41;4977061;28;20325;-65
2022/10/11 11:20:07;;;;;;;;;;;;;;;16.32;51.78;101189.50;4975904;28;19914;-62
2022/10/11 11:22:40;;;;;;;;;;;;;;;16.62;51.35;101193.78;4974613;28;19921;-63
2022/10/11 11:25:13;;;;;;;;;;;;;;;16.71;50.66;101201.44;4975735;28;19918;-62
2022/10/11 11:27:38;;;;;;;;;;;;;;;16.57;50.52;101197.53;4975885;28;19914;-61
2022/10/11 11:30:04;;;;;;;;;;;;;;;16.95;50.46;101191.78;4976379;28;19917;-63
2022/10/11 11:32:29;;;;;;;;;;;;;;;17.27;49.73;101196.88;4975877;28;19921;-63
2022/10/11 11:35:01;;;;;;;;;;;;;;;17.36;48.32;101194.75;4976251;28;20016;-64
2022/10/11 11:37:34;;;;;;;;;;;;;;;17.58;48.68;101200.13;4976705;28;20016;-64
2022/10/11 11:40:26;;;;;;;;;;;;;;;17.97;48.19;101204.88;4976786;28;20362;-65
2022/10/11 11:42:54;;;;;;;;;;;;;;;18.36;47.80;101210.38;4976591;28;19914;-65
2022/10/11 11:45:25;;;;;;;;;;;;;;;17.63;50.33;101215.88;4976512;28;19922;-65
2022/10/11 11:47:55;;;;;;;;;;;;;;;16.07;56.41;101245.94;4975309;28;19921;-64
2022/10/11 11:50:25;;;;;;;;;;;;;;;15.52;58.51;101248.44;4975375;28;19914;-64
2022/10/11 11:52:56;;;;;;;;;;;;;;;15.86;62.71;101228.91;4976192;28;19914;-65
2022/10/11 11:55:56;;;;;;;;;;;;;;;16.05;62.14;101215.13;4976703;28;20000;-66
2022/10/11 11:58:22;;;;;;;;;;;;;;;15.73;60.32;101235.50;4935654;29;19915;-64
2022/10/11 12:01:01;;;;;;;;;;;;;;;15.45;60.77;101238.06;4967879;28;19922;-65
2022/10/11 12:03:31;;;;;;;;;;;;;;;15.38;59.71;101232.06;4973406;28;19918;-65
2022/10/11 12:06:12;;;;;;;;;;;;;;;15.27;59.65;101231.47;4973874;28;19922;-65
2022/10/11 12:08:38;;;;;;;;;;;;;;;15.51;58.33;101225.47;4976305;28;19968;-63
2022/10/11 12:11:04;;;;;;;;;;;;;;;15.94;56.43;101223.38;4975061;28;19961;-64
2022/10/11 12:13:34;;;;;;;;;;;;;;;15.94;54.28;101228.69;4976111;28;19961;-65
2022/10/11 12:16:08;;;;;;;;;;;;;;;16.28;54.25;101223.22;4976118;28;19932;-64
2022/10/11 12:18:35;;;;;;;;;;;;;;;16.61;52.29;101231.84;4957023;28;19921;-64
2022/10/11 12:21:05;;;;;;;;;;;;;;;16.20;51.58;101225.25;4968416;28;19921;-64
2022/10/11 12:23:30;;;;;;;;;;;;;;;16.15;51.57;101227.16;4974650;28;20084;-65
2022/10/11 12:26:15;;;;;;;;;;;;;;;16.18;51.86;101229.72;4974650;28;20310;-64
2022/10/11 12:28:40;;;;;;;;;;;;;;;16.49;50.65;101243.75;4974941;28;19973;-65
2022/10/11 12:31:17;;;;;;;;;;;;;;;16.47;49.54;101229.63;4974715;28;20345;-65
2022/10/11 12:33:45;;;;;;;;;;;;;;;16.34;49.23;101243.38;4975341;28;19961;-66
2022/10/11 12:36:29;;;;;;;;;;;;;;;16.34;48.67;101233.63;4974131;28;19964;-65
2022/10/11 12:39:12;;;;;;;;;;;;;;;16.40;47.66;101244.03;4975411;28;19914;-64
2022/10/11 12:41:50;;;;;;;;;;;;;;;16.48;46.78;101251.75;4975734;28;19923;-64
2022/10/11 12:44:21;;;;;;;;;;;;;;;16.39;46.57;101236.97;4975447;28;20365;-65